Time;durP1;ratioP1;P1;durP2;ratioP2;P2;SDS_P1;SDS_P2;PMS_P1;PMS_P2;Temp;Humidity;BMP_temperature;BMP_pressure;BME280_temperature;BME280_humidity;BME280_pressure;Samples;Min_cycle;Max_cycle;Signal;HPM_P1;HPM_P2
2021/07/22 00:02:24;;;;;;;11.30;7.72;;;14.10;99.90;;;;;;5031682;28;20112;-78
2021/07/22 00:04:49;;;;;;;10.55;7.72;;;14.10;99.90;;;;;;5027062;28;20034;-78
2021/07/22 00:07:15;;;;;;;12.50;8.25;;;14.00;99.90;;;;;;5032079;28;20029;-78
2021/07/22 00:09:41;;;;;;;11.82;7.40;;;14.00;99.90;;;;;;5032933;28;20033;-78
2021/07/22 00:12:11;;;;;;;11.93;7.95;;;13.90;99.90;;;;;;5026529;28;20030;-78
2021/07/22 00:14:38;;;;;;;13.18;7.88;;;13.90;99.90;;;;;;5027506;28;20084;-78
2021/07/22 00:17:05;;;;;;;11.98;8.00;;;13.90;99.90;;;;;;5033114;28;20033;-78
2021/07/22 00:19:31;;;;;;;11.77;7.85;;;13.80;99.90;;;;;;5033713;28;20033;-78
2021/07/22 00:21:58;;;;;;;12.15;7.45;;;13.80;99.90;;;;;;5033062;28;20577;-79
2021/07/22 00:24:25;;;;;;;11.93;7.78;;;13.80;99.90;;;;;;5033175;28;20079;-78
2021/07/22 00:26:51;;;;;;;11.38;7.47;;;13.80;99.90;;;;;;5033269;28;20096;-78
2021/07/22 00:29:17;;;;;;;16.77;7.88;;;13.80;99.90;;;;;;5032009;28;20039;-78
2021/07/22 00:31:43;;;;;;;11.57;7.88;;;13.70;99.90;;;;;;5031475;28;20025;-78
2021/07/22 00:34:08;;;;;;;10.07;7.22;;;13.70;99.90;;;;;;5032923;28;20032;-78
2021/07/22 00:36:34;;;;;;;13.10;8.23;;;13.70;99.90;;;;;;5031230;28;20515;-78
2021/07/22 00:39:00;;;;;;;12.13;7.80;;;13.70;99.90;;;;;;5030898;28;20025;-79
2021/07/22 00:41:26;;;;;;;14.43;8.13;;;13.60;99.90;;;;;;5031232;28;20040;-78
2021/07/22 00:43:52;;;;;;;12.23;7.88;;;13.60;99.90;;;;;;5029488;28;20140;-78
2021/07/22 00:46:18;;;;;;;10.90;7.20;;;13.60;99.90;;;;;;5012258;28;20094;-80
2021/07/22 00:48:44;;;;;;;11.05;7.43;;;13.50;99.90;;;;;;5031890;28;20037;-78
2021/07/22 00:51:10;;;;;;;10.52;6.90;;;13.50;99.90;;;;;;5030724;28;20048;-78
2021/07/22 00:53:37;;;;;;;10.80;7.68;;;13.40;99.90;;;;;;5031683;28;20045;-78
2021/07/22 00:56:03;;;;;;;10.90;7.00;;;13.40;99.90;;;;;;5030682;28;20424;-78
2021/07/22 00:58:31;;;;;;;11.75;7.38;;;13.40;99.90;;;;;;5029869;28;20441;-79
2021/07/22 01:00:58;;;;;;;9.82;6.75;;;13.40;99.90;;;;;;5021429;28;20067;-78
2021/07/22 01:03:24;;;;;;;13.50;8.30;;;13.40;99.90;;;;;;5023706;28;20088;-78
2021/07/22 01:05:51;;;;;;;11.05;6.68;;;13.40;99.90;;;;;;5015745;28;20026;-78
2021/07/22 01:08:16;;;;;;;12.23;7.40;;;13.40;99.90;;;;;;5033067;28;20029;-79
2021/07/22 01:10:53;;;;;;;10.63;6.82;;;13.30;99.90;;;;;;5023844;28;20049;-78
2021/07/22 01:13:19;;;;;;;10.18;7.03;;;13.30;99.90;;;;;;5031397;28;20056;-78
2021/07/22 01:15:45;;;;;;;12.18;7.15;;;13.30;99.90;;;;;;5031745;28;20104;-80
2021/07/22 01:18:11;;;;;;;11.18;7.35;;;13.30;99.90;;;;;;5047462;28;20025;-79
2021/07/22 01:20:37;;;;;;;11.40;7.38;;;13.30;99.90;;;;;;5030979;28;20044;-78
2021/07/22 01:23:03;;;;;;;10.95;7.28;;;13.30;99.90;;;;;;5014221;28;20033;-78
2021/07/22 01:25:48;;;;;;;10.90;7.50;;;13.30;99.90;;;;;;5032174;28;20093;-80
2021/07/22 01:28:14;;;;;;;11.30;7.28;;;13.20;99.90;;;;;;5032273;28;20376;-78
2021/07/22 01:30:42;;;;;;;10.52;7.05;;;13.20;99.90;;;;;;5031398;28;20022;-79
2021/07/22 01:33:08;;;;;;;11.82;7.63;;;13.20;99.90;;;;;;5032939;28;20100;-79
2021/07/22 01:35:34;;;;;;;10.52;6.80;;;13.20;99.90;;;;;;5031306;28;20040;-78
2021/07/22 01:38:00;;;;;;;11.43;7.18;;;13.10;99.90;;;;;;5032320;28;20026;-78
2021/07/22 01:40:28;;;;;;;10.43;6.93;;;13.10;99.90;;;;;;5031057;28;20371;-78
2021/07/22 01:42:54;;;;;;;11.98;7.30;;;13.10;99.90;;;;;;4998696;28;20108;-78
2021/07/22 01:45:23;;;;;;;10.50;7.13;;;13.00;99.90;;;;;;5029829;28;20029;-79
2021/07/22 01:47:48;;;;;;;11.40;7.78;;;13.00;99.90;;;;;;5033266;28;20051;-78
2021/07/22 01:50:14;;;;;;;10.52;7.55;;;13.00;99.90;;;;;;5014700;28;20029;-78
2021/07/22 01:52:41;;;;;;;13.38;7.22;;;13.00;99.90;;;;;;5024234;28;20084;-79
2021/07/22 01:55:09;;;;;;;10.30;7.25;;;13.00;99.90;;;;;;5024872;28;20133;-78
2021/07/22 01:57:43;;;;;;;11.07;7.32;;;12.90;99.90;;;;;;5047446;28;20040;-77
2021/07/22 02:00:09;;;;;;;13.23;7.88;;;12.90;99.90;;;;;;5031559;28;20396;-78
2021/07/22 02:02:54;;;;;;;11.00;7.07;;;12.90;99.90;;;;;;5033093;28;20101;-80
2021/07/22 02:05:24;;;;;;;10.35;7.13;;;12.80;99.90;;;;;;5031429;28;20534;-80
2021/07/22 02:07:51;;;;;;;12.68;7.85;;;12.80;99.90;;;;;;5032151;28;20033;-78
2021/07/22 02:10:20;;;;;;;14.77;7.03;;;12.80;99.90;;;;;;5023588;28;20120;-80
2021/07/22 02:12:45;;;;;;;13.30;7.55;;;12.80;99.90;;;;;;5014292;28;20034;-79
2021/07/22 02:15:15;;;;;;;11.05;7.38;;;12.80;99.90;;;;;;5030151;28;20462;-79
2021/07/22 02:17:41;;;;;;;12.30;7.45;;;12.70;99.90;;;;;;5028795;28;20053;-78
2021/07/22 02:20:07;;;;;;;15.05;7.88;;;12.80;99.90;;;;;;5031589;28;20060;-80
2021/07/22 02:22:33;;;;;;;11.02;6.68;;;12.70;99.90;;;;;;5033198;28;20030;-78
2021/07/22 02:25:19;;;;;;;11.48;7.15;;;12.70;99.90;;;;;;5030450;28;20094;-80
2021/07/22 02:27:52;;;;;;;11.93;7.55;;;12.60;99.90;;;;;;5024891;28;20021;-80
2021/07/22 02:30:18;;;;;;;10.43;7.15;;;12.60;99.90;;;;;;5020678;28;20598;-78
2021/07/22 02:32:45;;;;;;;11.60;7.35;;;12.60;99.90;;;;;;5026465;28;20057;-79
2021/07/22 02:35:11;;;;;;;11.48;7.03;;;12.50;99.90;;;;;;5034753;28;20052;-78
2021/07/22 02:38:00;;;;;;;10.95;7.30;;;12.50;99.90;;;;;;5033986;28;20504;-79
2021/07/22 02:40:28;;;;;;;11.55;7.07;;;12.50;99.90;;;;;;5034050;28;20099;-79
2021/07/22 02:42:54;;;;;;;10.95;7.20;;;12.50;99.90;;;;;;5018003;28;20018;-78
2021/07/22 02:45:23;;;;;;;11.02;6.88;;;12.40;99.90;;;;;;5034478;28;20037;-79
2021/07/22 02:47:49;;;;;;;10.65;6.95;;;12.40;99.90;;;;;;5035423;28;20025;-80
2021/07/22 02:50:15;;;;;;;12.80;7.13;;;12.40;99.90;;;;;;5031106;28;20345;-79
2021/07/22 02:52:45;;;;;;;11.02;7.00;;;12.30;99.90;;;;;;5034222;28;20034;-80
2021/07/22 02:55:12;;;;;;;10.40;6.70;;;12.30;99.90;;;;;;5034584;28;20105;-78
2021/07/22 02:57:37;;;;;;;12.15;7.05;;;12.30;99.90;;;;;;5035643;28;20499;-78
2021/07/22 03:00:05;;;;;;;10.98;7.40;;;12.30;99.90;;;;;;5031857;28;20060;-81
2021/07/22 03:02:31;;;;;;;13.07;7.18;;;12.30;99.90;;;;;;5051337;28;20045;-81
2021/07/22 03:04:57;;;;;;;9.00;6.40;;;12.30;99.90;;;;;;5036182;28;20022;-78
2021/07/22 03:07:24;;;;;;;9.10;6.32;;;12.30;99.90;;;;;;5029439;28;20030;-78
2021/07/22 03:09:51;;;;;;;9.82;6.80;;;12.30;99.90;;;;;;5027107;28;20041;-78
2021/07/22 03:12:18;;;;;;;12.55;7.55;;;12.30;99.90;;;;;;5035399;28;20030;-81
2021/07/22 03:14:46;;;;;;;12.15;7.28;;;12.20;99.90;;;;;;5031681;28;20522;-80
2021/07/22 03:17:13;;;;;;;11.25;6.97;;;12.30;99.90;;;;;;5026968;28;20030;-79
2021/07/22 03:19:51;;;;;;;12.25;7.00;;;12.20;99.90;;;;;;5032534;28;20083;-79
2021/07/22 03:22:39;;;;;;;10.85;6.97;;;12.20;99.90;;;;;;5035193;28;20117;-78
2021/07/22 03:25:16;;;;;;;10.32;6.50;;;12.20;99.90;;;;;;5017517;28;20484;-79
2021/07/22 03:27:57;;;;;;;12.45;7.57;;;12.20;99.90;;;;;;5007976;28;20041;-80
2021/07/22 03:30:39;;;;;;;9.63;6.15;;;12.20;99.90;;;;;;5020721;28;20025;-78
2021/07/22 03:33:34;;;;;;;11.55;6.88;;;12.20;99.90;;;;;;4964894;28;20043;-80
2021/07/22 03:36:11;;;;;;;9.65;6.50;;;12.20;99.90;;;;;;5014695;28;20033;-80
2021/07/22 03:38:41;;;;;;;11.02;7.20;;;12.20;99.90;;;;;;5034727;28;20083;-79
2021/07/22 03:41:26;;;;;;;11.88;7.43;;;12.20;99.90;;;;;;5033750;28;20048;-80
2021/07/22 03:43:58;;;;;;;13.40;6.82;;;12.20;99.90;;;;;;5032516;28;20026;-78
2021/07/22 03:46:24;;;;;;;11.77;7.35;;;12.20;99.90;;;;;;5032748;28;20086;-80
2021/07/22 03:48:51;;;;;;;12.27;7.28;;;12.20;99.90;;;;;;5015067;28;20029;-80
2021/07/22 03:51:19;;;;;;;12.15;7.60;;;12.20;99.90;;;;;;5033898;28;20128;-80
2021/07/22 03:53:45;;;;;;;11.25;7.43;;;12.10;99.90;;;;;;5035944;28;20026;-79
2021/07/22 03:56:12;;;;;;;11.18;6.85;;;12.10;99.90;;;;;;5032211;28;20041;-80
2021/07/22 03:58:45;;;;;;;11.73;6.88;;;12.10;99.90;;;;;;5034051;28;20038;-80
2021/07/22 04:01:26;;;;;;;10.45;6.78;;;12.10;99.90;;;;;;5020115;28;20029;-78
2021/07/22 04:03:54;;;;;;;13.00;7.20;;;12.20;99.90;;;;;;5033965;28;20083;-78
2021/07/22 04:06:21;;;;;;;12.02;7.15;;;12.20;99.90;;;;;;5017463;28;20116;-78
2021/07/22 04:08:47;;;;;;;10.25;6.05;;;12.20;99.90;;;;;;5034266;28;20037;-80
2021/07/22 04:11:52;;;;;;;10.68;7.32;;;12.20;99.90;;;;;;5001582;28;20046;-78
2021/07/22 04:14:37;;;;;;;10.87;7.13;;;12.30;99.90;;;;;;5011771;28;20037;-78
2021/07/22 04:17:21;;;;;;;11.05;7.10;;;12.20;99.90;;;;;;5028042;28;20510;-79
2021/07/22 04:20:08;;;;;;;13.30;6.70;;;12.30;99.90;;;;;;5034576;28;20039;-78
2021/07/22 04:22:59;;;;;;;10.57;7.28;;;12.30;99.90;;;;;;5034079;28;20049;-78
2021/07/22 04:25:42;;;;;;;10.07;6.85;;;12.30;99.90;;;;;;5031371;28;20033;-79
2021/07/22 04:28:14;;;;;;;13.65;6.90;;;12.40;99.90;;;;;;5033778;28;20057;-79
2021/07/22 04:30:42;;;;;;;10.00;6.60;;;12.40;99.90;;;;;;5033970;28;20030;-79
2021/07/22 04:33:17;;;;;;;14.15;6.95;;;12.50;99.90;;;;;;5035309;28;20072;-79
2021/07/22 04:35:56;;;;;;;12.10;6.93;;;12.50;99.90;;;;;;5034884;28;20021;-78
2021/07/22 04:38:49;;;;;;;11.25;6.90;;;12.50;99.90;;;;;;5032496;28;20034;-80
2021/07/22 04:41:26;;;;;;;12.45;7.18;;;12.60;99.90;;;;;;5035011;28;20115;-80
2021/07/22 04:44:12;;;;;;;;;;;12.60;99.90;;;;;;5033287;28;20144;-78
2021/07/22 04:46:58;;;;;;;9.70;5.97;;;12.70;99.90;;;;;;5046847;28;20375;-79
2021/07/22 04:49:41;;;;;;;12.30;6.53;;;12.80;99.90;;;;;;5030937;28;20107;-80
2021/07/22 04:52:13;;;;;;;11.00;6.80;;;12.90;99.90;;;;;;5030115;28;20037;-79
2021/07/22 04:54:55;;;;;;;11.88;6.90;;;12.90;99.90;;;;;;5019541;28;20056;-80
2021/07/22 04:57:21;;;;;;;11.30;6.55;;;13.00;99.90;;;;;;5028510;28;20030;-80
2021/07/22 04:59:48;;;;;;;11.65;7.47;;;13.10;99.90;;;;;;5034700;28;20038;-79
2021/07/22 05:02:17;;;;;;;12.90;7.95;;;13.10;99.90;;;;;;5048732;28;20117;-78
2021/07/22 05:04:43;;;;;;;12.73;7.43;;;13.20;99.90;;;;;;5031559;28;20086;-78
2021/07/22 05:07:09;;;;;;;10.50;7.05;;;13.20;99.90;;;;;;5034253;28;20028;-80
2021/07/22 05:09:35;;;;;;;12.80;7.20;;;13.30;99.90;;;;;;5034602;28;20079;-80
2021/07/22 05:12:36;;;;;;;11.43;6.95;;;13.40;99.90;;;;;;5034045;28;20041;-80
2021/07/22 05:15:21;;;;;;;9.77;6.63;;;13.50;99.90;;;;;;5030698;28;20083;-80
2021/07/22 05:18:03;;;;;;;11.43;7.10;;;13.60;99.90;;;;;;5032701;28;20033;-78
2021/07/22 05:20:55;;;;;;;10.57;6.53;;;13.80;99.90;;;;;;5011526;28;20041;-79
2021/07/22 05:23:44;;;;;;;11.57;6.80;;;13.90;99.90;;;;;;5030020;28;20041;-80
2021/07/22 05:26:23;;;;;;;8.55;6.43;;;14.00;99.90;;;;;;5019089;28;20136;-78
2021/07/22 05:28:54;;;;;;;11.43;6.60;;;14.10;99.90;;;;;;5021128;28;20060;-81
2021/07/22 05:31:44;;;;;;;10.50;6.63;;;14.20;99.90;;;;;;5033224;28;20038;-78
2021/07/22 05:34:38;;;;;;;12.40;6.68;;;14.40;99.90;;;;;;5029674;28;20029;-78
2021/07/22 05:37:31;;;;;;;9.23;6.45;;;14.50;99.90;;;;;;5049409;28;20061;-79
2021/07/22 05:39:57;;;;;;;10.40;7.22;;;14.70;99.90;;;;;;5034486;28;20038;-80
2021/07/22 05:42:23;;;;;;;11.43;6.60;;;14.80;99.90;;;;;;5037231;28;20499;-79
2021/07/22 05:44:49;;;;;;;10.13;6.85;;;14.90;99.90;;;;;;5037874;28;20440;-78
2021/07/22 05:47:16;;;;;;;10.05;7.15;;;14.90;99.90;;;;;;5033034;28;20033;-78
2021/07/22 05:49:42;;;;;;;10.73;6.47;;;15.00;99.90;;;;;;5034595;28;20034;-78
2021/07/22 05:52:07;;;;;;;9.40;6.40;;;15.00;99.90;;;;;;5042054;28;20040;-79
2021/07/22 05:54:33;;;;;;;9.48;6.22;;;14.90;99.90;;;;;;5040658;28;20048;-78
2021/07/22 05:57:00;;;;;;;8.80;6.43;;;14.90;99.90;;;;;;5040570;28;20033;-80
2021/07/22 05:59:26;;;;;;;11.63;7.38;;;15.00;99.90;;;;;;5034941;28;20483;-80
2021/07/22 06:01:51;;;;;;;11.95;7.68;;;15.00;99.90;;;;;;5030275;28;20053;-79
2021/07/22 06:04:17;;;;;;;9.70;6.68;;;15.10;99.90;;;;;;5038216;28;20508;-81
2021/07/22 06:06:43;;;;;;;11.23;7.43;;;15.20;99.90;;;;;;5037471;28;20037;-79
2021/07/22 06:09:10;;;;;;;12.48;8.05;;;15.30;99.90;;;;;;5042877;28;20037;-78
2021/07/22 06:11:35;;;;;;;11.68;8.05;;;15.50;99.90;;;;;;5037186;28;20403;-79
2021/07/22 06:14:01;;;;;;;12.77;7.95;;;15.60;99.90;;;;;;5060654;28;20033;-79
2021/07/22 06:16:27;;;;;;;12.05;7.40;;;15.70;99.90;;;;;;5042260;28;20080;-79
2021/07/22 06:18:53;;;;;;;10.43;7.13;;;16.00;99.90;;;;;;5037264;28;20087;-79
2021/07/22 06:21:19;;;;;;;12.20;7.10;;;16.40;99.90;;;;;;5018585;28;20037;-79
2021/07/22 06:23:45;;;;;;;13.13;7.28;;;16.50;99.90;;;;;;5037876;28;20030;-79
2021/07/22 06:26:11;;;;;;;11.98;7.45;;;17.00;99.90;;;;;;5037302;28;20811;-78
2021/07/22 06:28:37;;;;;;;14.15;7.38;;;17.40;99.90;;;;;;5033466;28;20032;-78
2021/07/22 06:31:03;;;;;;;11.63;6.35;;;17.90;99.90;;;;;;5037824;28;20045;-79
2021/07/22 06:33:29;;;;;;;9.60;6.18;;;18.40;99.90;;;;;;5033187;28;20030;-78
2021/07/22 06:35:58;;;;;;;8.93;6.03;;;18.80;99.90;;;;;;5031332;28;20033;-79
2021/07/22 06:38:28;;;;;;;9.85;6.43;;;19.30;99.90;;;;;;5035306;28;20556;-78
2021/07/22 06:40:54;;;;;;;8.82;5.78;;;19.20;99.90;;;;;;5039975;28;21436;-79
2021/07/22 06:43:20;;;;;;;8.75;5.45;;;19.30;99.90;;;;;;5027821;22;20037;-76
2021/07/22 06:45:46;;;;;;;8.52;5.97;;;19.30;99.90;;;;;;5030888;28;20471;-77
2021/07/22 06:48:11;;;;;;;8.93;5.47;;;19.50;99.90;;;;;;5029542;28;20084;-78
2021/07/22 06:50:37;;;;;;;8.13;5.30;;;19.80;99.90;;;;;;5013121;28;20030;-78
2021/07/22 06:53:06;;;;;;;6.80;5.13;;;20.30;99.90;;;;;;5027853;28;20483;-77
2021/07/22 06:55:33;;;;;;;7.72;5.60;;;20.80;99.90;;;;;;5031458;28;20036;-77
2021/07/22 06:58:09;;;;;;;7.18;4.95;;;21.30;99.90;;;;;;5030927;28;20042;-77
2021/07/22 07:00:36;;;;;;;7.55;5.05;;;21.70;99.90;;;;;;5031213;28;20033;-77
2021/07/22 07:03:06;;;;;;;7.57;4.80;;;21.70;99.90;;;;;;5034068;28;20036;-77
2021/07/22 07:05:32;;;;;;;7.20;4.47;;;22.00;99.90;;;;;;5018378;28;20021;-77
2021/07/22 07:07:58;;;;;;;6.82;5.18;;;22.30;99.90;;;;;;5037043;28;20025;-78
2021/07/22 07:10:24;;;;;;;8.80;5.35;;;22.40;99.90;;;;;;5033082;28;20116;-77
2021/07/22 07:12:50;;;;;;;6.85;5.03;;;22.50;99.90;;;;;;5034772;28;20048;-78
2021/07/22 07:15:17;;;;;;;9.27;5.00;;;22.40;99.90;;;;;;5032544;28;20079;-77
2021/07/22 07:17:42;;;;;;;11.50;4.93;;;22.30;98.00;;;;;;5013772;28;20483;-77
2021/07/22 07:20:08;;;;;;;7.55;4.45;;;22.40;99.50;;;;;;5017126;28;20056;-77
2021/07/22 07:22:34;;;;;;;6.40;4.57;;;22.40;99.80;;;;;;5032636;28;20033;-77
2021/07/22 07:25:00;;;;;;;8.38;5.15;;;22.90;99.90;;;;;;5032228;28;20022;-78
2021/07/22 07:27:26;;;;;;;10.15;5.40;;;23.30;96.50;;;;;;5030811;28;20021;-78
2021/07/22 07:29:51;;;;;;;6.72;4.97;;;23.50;96.80;;;;;;5031703;28;20052;-78
2021/07/22 07:32:17;;;;;;;6.60;4.50;;;23.20;93.40;;;;;;5032241;28;20049;-77
2021/07/22 07:34:43;;;;;;;8.75;5.57;;;23.30;97.30;;;;;;5030476;28;20029;-78
2021/07/22 07:37:08;;;;;;;10.00;5.10;;;23.50;92.90;;;;;;5029853;28;20112;-77
2021/07/22 07:39:34;;;;;;;9.10;5.30;;;23.80;94.60;;;;;;5032432;28;20489;-77
2021/07/22 07:42:01;;;;;;;9.88;5.05;;;23.50;91.90;;;;;;5031335;28;20048;-77
2021/07/22 07:44:27;;;;;;;5.43;4.07;;;22.90;93.30;;;;;;5030758;28;20598;-77
2021/07/22 07:46:53;;;;;;;6.72;4.35;;;22.90;94.80;;;;;;5026968;28;20029;-77
2021/07/22 07:49:19;;;;;;;6.00;4.13;;;23.10;96.50;;;;;;5029323;28;20526;-77
2021/07/22 07:51:44;;;;;;;7.95;4.40;;;23.40;93.60;;;;;;5030609;28;20029;-77
2021/07/22 07:54:11;;;;;;;7.78;4.55;;;23.50;93.80;;;;;;5030387;28;20030;-77
2021/07/22 07:56:38;;;;;;;11.40;5.13;;;23.60;94.30;;;;;;5027453;28;20034;-77
2021/07/22 07:59:03;;;;;;;5.47;4.32;;;23.50;95.20;;;;;;5026626;28;20396;-77
2021/07/22 08:01:30;;;;;;;6.30;4.68;;;23.40;93.80;;;;;;5030868;28;20041;-77
2021/07/22 08:03:57;;;;;;;5.93;4.80;;;23.20;93.10;;;;;;5013908;28;20033;-76
2021/07/22 08:06:22;;;;;;;6.53;3.97;;;23.00;92.70;;;;;;5031145;28;20029;-76
2021/07/22 08:08:48;;;;;;;6.03;4.03;;;22.80;92.90;;;;;;5031741;28;20534;-76
2021/07/22 08:11:14;;;;;;;8.75;5.93;;;22.60;94.20;;;;;;5027748;28;20442;-77
2021/07/22 08:13:40;;;;;;;5.22;4.20;;;22.80;98.00;;;;;;5030123;28;20036;-77
2021/07/22 08:16:05;;;;;;;6.32;4.43;;;23.20;95.30;;;;;;5031991;28;20049;-77
2021/07/22 08:18:31;;;;;;;9.35;4.80;;;23.60;92.30;;;;;;5026466;28;20470;-77
2021/07/22 08:20:57;;;;;;;5.70;4.45;;;23.70;90.70;;;;;;5028106;28;20083;-77
2021/07/22 08:23:23;;;;;;;6.75;5.00;;;23.70;91.60;;;;;;5019796;28;20099;-77
2021/07/22 08:25:48;;;;;;;7.57;5.10;;;23.70;92.30;;;;;;5025478;28;20037;-77
2021/07/22 08:28:14;;;;;;;6.85;4.93;;;24.00;90.10;;;;;;5017748;28;20037;-77
2021/07/22 08:30:40;;;;;;;7.35;5.03;;;24.00;90.00;;;;;;5024849;28;20018;-76
2021/07/22 08:33:06;;;;;;;6.45;4.80;;;24.40;88.90;;;;;;5025226;28;20572;-77
2021/07/22 08:35:32;;;;;;;4.80;4.03;;;24.50;87.00;;;;;;5008124;28;20395;-77
2021/07/22 08:37:58;;;;;;;5.85;3.97;;;24.90;90.50;;;;;;5026730;28;20160;-77
2021/07/22 08:40:25;;;;;;;4.72;3.90;;;24.80;87.50;;;;;;5023946;28;20036;-76
2021/07/22 08:42:54;;;;;;;6.45;4.55;;;25.30;85.80;;;;;;5006707;28;20032;-77
2021/07/22 08:45:20;;;;;;;5.18;4.18;;;25.70;86.50;;;;;;5024381;28;20060;-77
2021/07/22 08:47:47;;;;;;;4.80;3.65;;;25.90;85.10;;;;;;5006977;28;20064;-76
2021/07/22 08:50:14;;;;;;;7.65;4.75;;;25.90;83.50;;;;;;5024754;28;20037;-76
2021/07/22 08:52:41;;;;;;;7.75;4.78;;;25.90;82.90;;;;;;5007312;28;20395;-77
2021/07/22 08:55:08;;;;;;;6.97;4.20;;;25.40;85.80;;;;;;5023739;28;20079;-77
2021/07/22 08:57:36;;;;;;;5.40;4.30;;;25.40;82.20;;;;;;5024103;28;20033;-77
2021/07/22 09:00:04;;;;;;;7.38;4.03;;;25.50;82.70;;;;;;5019223;28;20025;-77
2021/07/22 09:02:31;;;;;;;4.97;3.90;;;25.60;83.80;;;;;;5023182;28;20022;-78
2021/07/22 09:05:02;;;;;;;7.68;4.60;;;25.70;82.10;;;;;;5025001;28;20121;-78
2021/07/22 09:07:29;;;;;;;5.32;4.13;;;26.00;82.30;;;;;;5024468;28;20029;-77
2021/07/22 09:10:04;;;;;;;5.82;4.43;;;26.30;79.70;;;;;;5022541;28;20060;-77
2021/07/22 09:12:38;;;;;;;6.55;4.72;;;26.20;75.70;;;;;;5003634;28;20030;-77
2021/07/22 09:15:05;;;;;;;5.78;4.80;;;25.70;79.20;;;;;;5023054;28;20535;-77
2021/07/22 09:17:31;;;;;;;4.90;4.30;;;25.40;80.20;;;;;;5022479;28;20087;-77
2021/07/22 09:19:57;;;;;;;8.00;4.93;;;25.20;80.20;;;;;;5020984;28;20037;-77
2021/07/22 09:22:39;;;;;;;6.53;4.57;;;25.00;79.70;;;;;;5022793;28;20045;-77
2021/07/22 09:25:05;;;;;;;4.70;3.90;;;24.90;85.90;;;;;;5005137;28;20022;-77
2021/07/22 09:27:32;;;;;;;6.93;5.32;;;24.80;83.40;;;;;;5025175;28;20028;-77
2021/07/22 09:29:58;;;;;;;7.65;5.18;;;24.80;84.30;;;;;;5023670;28;20103;-78
2021/07/22 09:32:31;;;;;;;8.85;4.75;;;24.40;78.40;;;;;;5021949;28;20551;-78
2021/07/22 09:35:13;;;;;;;6.25;4.35;;;24.00;81.70;;;;;;5025109;28;20506;-77
2021/07/22 09:37:51;;;;;;;7.97;5.25;;;23.70;85.40;;;;;;5025655;28;20021;-77
2021/07/22 09:40:24;;;;;;;6.15;4.60;;;23.40;80.00;;;;;;5028113;28;20121;-78
2021/07/22 09:42:54;;;;;;;8.27;5.25;;;23.40;81.20;;;;;;5028650;28;20112;-78
2021/07/22 09:45:23;;;;;;;7.43;4.40;;;23.40;81.90;;;;;;5028638;28;20025;-77
2021/07/22 09:47:50;;;;;;;6.22;4.88;;;23.40;85.10;;;;;;5027331;28;20029;-78
2021/07/22 09:50:17;;;;;;;6.68;4.70;;;23.40;85.20;;;;;;5028372;28;20045;-78
2021/07/22 09:52:44;;;;;;;6.07;4.80;;;23.40;83.40;;;;;;5027646;28;20445;-78
2021/07/22 09:55:24;;;;;;;7.22;4.72;;;23.60;83.50;;;;;;5028135;28;20025;-78
2021/07/22 09:58:01;;;;;;;8.68;4.35;;;23.50;81.40;;;;;;5024163;28;20735;-78
2021/07/22 10:00:28;;;;;;;7.45;4.47;;;23.40;81.70;;;;;;5021132;28;20029;-77
2021/07/22 10:02:56;;;;;;;5.95;4.25;;;23.40;78.50;;;;;;5027419;28;20025;-78
2021/07/22 10:05:24;;;;;;;7.00;4.32;;;23.50;83.60;;;;;;5028234;28;20435;-79
2021/07/22 10:07:52;;;;;;;5.65;5.00;;;23.60;81.50;;;;;;5027239;28;20025;-79
2021/07/22 10:10:19;;;;;;;6.60;4.43;;;23.70;85.10;;;;;;5026323;28;20021;-79
2021/07/22 10:12:59;;;;;;;4.72;4.00;;;23.80;88.70;;;;;;5004474;28;20057;-79
2021/07/22 10:15:27;;;;;;;8.73;5.03;;;23.90;82.20;;;;;;5027742;28;20452;-77
2021/07/22 10:17:57;;;;;;;5.43;4.38;;;23.70;82.90;;;;;;5010442;28;20505;-79
2021/07/22 10:20:31;;;;;;;5.55;4.70;;;23.70;81.60;;;;;;5027504;28;20045;-77
2021/07/22 10:22:58;;;;;;;7.07;4.70;;;23.70;83.60;;;;;;5025931;28;20018;-79
2021/07/22 10:25:25;;;;;;;7.28;5.22;;;23.70;85.30;;;;;;5010873;28;20026;-80
2021/07/22 10:27:53;;;;;;;5.13;4.28;;;23.60;84.20;;;;;;5025639;28;20026;-79
2021/07/22 10:30:21;;;;;;;5.57;4.63;;;23.60;87.10;;;;;;5027356;28;20639;-80
2021/07/22 10:32:57;;;;;;;5.82;4.65;;;23.60;89.10;;;;;;5021130;28;20033;-78
2021/07/22 10:35:33;;;;;;;5.18;4.53;;;23.70;91.40;;;;;;5025084;28;20060;-78
2021/07/22 10:38:23;;;;;;;4.50;3.95;;;23.80;92.30;;;;;;5027321;28;20038;-79
2021/07/22 10:40:55;;;;;;;6.05;4.68;;;23.90;90.70;;;;;;5038726;28;20116;-78
2021/07/22 10:43:40;;;;;;;8.80;4.57;;;24.10;82.90;;;;;;5025871;28;20071;-79
2021/07/22 10:46:11;;;;;;;7.82;4.15;;;24.10;83.60;;;;;;5018183;28;20041;-80
2021/07/22 10:48:39;;;;;;;5.53;4.32;;;24.10;82.90;;;;;;5008714;28;20033;-79
2021/07/22 10:51:06;;;;;;;6.10;4.85;;;24.20;85.80;;;;;;5020850;28;20411;-78
2021/07/22 10:53:40;;;;;;;6.88;4.72;;;24.20;87.50;;;;;;5025545;28;20116;-81
2021/07/22 10:56:17;;;;;;;6.28;5.00;;;24.20;80.70;;;;;;5008142;28;20029;-78
2021/07/22 10:58:42;;;;;;;6.70;4.78;;;24.20;87.20;;;;;;5010071;28;20033;-79
2021/07/22 11:01:09;;;;;;;7.03;5.22;;;24.20;80.40;;;;;;5026715;28;20026;-77
2021/07/22 11:06:05;;;;;;;7.57;5.15;;;24.00;80.90;;;;;;5028381;28;20029;-79
2021/07/22 11:08:32;;;;;;;11.18;4.43;;;23.70;81.80;;;;;;5027802;28;20045;-78
2021/07/22 11:11:02;;;;;;;6.95;4.95;;;23.60;82.00;;;;;;5025686;28;20067;-79
2021/07/22 11:13:34;;;;;;;6.15;4.45;;;23.60;84.50;;;;;;5031022;28;20028;-78
2021/07/22 11:16:01;;;;;;;5.78;4.45;;;23.70;85.40;;;;;;5008410;28;20112;-80
2021/07/22 11:18:39;;;;;;;5.72;4.32;;;23.90;85.10;;;;;;5025197;28;20619;-79
2021/07/22 11:21:06;;;;;;;5.90;4.32;;;24.10;85.20;;;;;;5026695;28;20029;-79
2021/07/22 11:23:32;;;;;;;4.90;4.38;;;24.30;85.50;;;;;;5017072;28;20026;-81
2021/07/22 11:25:58;;;;;;;5.45;4.55;;;24.40;85.20;;;;;;5026334;28;20124;-81
2021/07/22 11:28:26;;;;;;;6.13;4.85;;;24.50;83.40;;;;;;5024578;28;20060;-78
2021/07/22 11:31:07;;;;;;;6.10;4.47;;;24.50;78.10;;;;;;5026024;28;20045;-80
2021/07/22 11:33:38;;;;;;;7.45;4.68;;;24.60;80.30;;;;;;5025595;28;20038;-78
2021/07/22 11:36:15;;;;;;;6.88;5.35;;;24.50;81.50;;;;;;5007719;28;20033;-79
2021/07/22 11:38:41;;;;;;;9.07;5.50;;;24.40;75.00;;;;;;5023943;28;20108;-78
2021/07/22 11:41:12;;;;;;;9.80;4.25;;;24.30;75.00;;;;;;5003310;28;20687;-77
2021/07/22 11:43:44;;;;;;;8.05;4.80;;;24.20;77.40;;;;;;5019851;28;20052;-77
2021/07/22 11:46:15;;;;;;;5.78;4.43;;;24.10;76.20;;;;;;5022346;28;20037;-78
2021/07/22 11:48:42;;;;;;;5.95;4.10;;;24.20;75.20;;;;;;5025539;28;20488;-79
2021/07/22 11:51:10;;;;;;;5.22;4.22;;;24.30;76.70;;;;;;5023818;28;20633;-78
2021/07/22 11:53:37;;;;;;;5.95;4.57;;;24.50;83.50;;;;;;5024051;28;20036;-80
2021/07/22 11:56:15;;;;;;;6.07;4.07;;;24.70;90.00;;;;;;5025011;28;20029;-80
2021/07/22 11:58:48;;;;;;;9.40;4.57;;;25.00;87.70;;;;;;5024269;28;20029;-79
2021/07/22 12:01:14;;;;;;;6.10;4.60;;;25.50;86.90;;;;;;5023543;28;20440;-78
2021/07/22 12:03:41;;;;;;;5.03;4.20;;;25.90;83.00;;;;;;5024650;28;20447;-78
2021/07/22 12:06:07;;;;;;;6.85;4.78;;;26.40;80.90;;;;;;5015180;28;20030;-78
2021/07/22 12:08:33;;;;;;;6.40;4.32;;;26.80;75.90;;;;;;5024416;28;20071;-79
2021/07/22 12:11:00;;;;;;;4.82;4.00;;;26.90;67.00;;;;;;5023472;28;20128;-77
2021/07/22 12:13:27;;;;;;;5.55;3.90;;;27.20;67.20;;;;;;5003507;28;20484;-78
2021/07/22 12:15:53;;;;;;;5.95;3.95;;;27.30;67.40;;;;;;5024695;28;20017;-79
2021/07/22 12:18:23;;;;;;;5.55;3.53;;;27.30;73.10;;;;;;5025311;28;20044;-78
2021/07/22 12:20:49;;;;;;;5.45;4.18;;;27.20;69.80;;;;;;5024591;28;20108;-79
2021/07/22 12:23:34;;;;;;;5.78;4.05;;;27.40;70.70;;;;;;5027088;28;20191;-78
2021/07/22 12:26:04;;;;;;;8.85;4.05;;;27.60;67.70;;;;;;5026085;28;20049;-77
2021/07/22 12:28:30;;;;;;;4.35;3.83;;;27.60;61.90;;;;;;5024761;28;20143;-78
2021/07/22 12:31:16;;;;;;;6.28;3.55;;;27.20;65.30;;;;;;5006854;28;20074;-78
2021/07/22 12:33:42;;;;;;;;;;;27.20;69.20;;;;;;5023197;28;20025;-78
2021/07/22 12:36:21;;;;;;;6.65;4.00;;;27.20;64.50;;;;;;5018899;28;19927;-79
2021/07/22 12:39:14;;;;;;;5.15;4.32;;;27.20;61.90;;;;;;5019528;28;20033;-78
2021/07/22 12:41:41;;;;;;;4.32;3.45;;;27.20;67.60;;;;;;5022311;28;20561;-78
2021/07/22 12:44:07;;;;;;;6.50;4.45;;;27.00;65.10;;;;;;5001819;28;20133;-78
2021/07/22 12:46:34;;;;;;;4.35;3.78;;;26.80;66.60;;;;;;5026782;28;20026;-79
2021/07/22 12:49:00;;;;;;;5.18;4.35;;;26.70;69.50;;;;;;5024932;28;20025;-79
2021/07/22 12:51:26;;;;;;;5.45;4.30;;;26.80;69.40;;;;;;5022878;28;20048;-79
2021/07/22 12:53:52;;;;;;;5.45;4.13;;;26.90;60.00;;;;;;5025600;28;20029;-78
2021/07/22 12:56:19;;;;;;;4.68;4.22;;;26.80;59.90;;;;;;5023661;28;20638;-78
2021/07/22 12:58:49;;;;;;;4.43;3.85;;;26.50;58.50;;;;;;5023633;28;20033;-79
2021/07/22 13:01:21;;;;;;;4.88;4.10;;;26.70;67.00;;;;;;5024448;28;20152;-79